Time;durP1;ratioP1;P1;durP2;ratioP2;P2;SDS_P1;SDS_P2;PMS_P1;PMS_P2;Temp;Humidity;BMP_temperature;BMP_pressure;BME280_temperature;BME280_humidity;BME280_pressure;Samples;Min_cycle;Max_cycle;Signal;HPM_P1;HPM_P2
2024/01/07 00:00:50;;;;;;;24.40;12.70;;;;;;;-1.95;96.32;100552.30;105562;1256;72963;-49
2024/01/07 00:03:41;;;;;;;20.80;12.50;;;;;;;-1.97;96.31;100552.61;105513;1253;83558;-50
2024/01/07 00:06:10;;;;;;;19.80;11.70;;;;;;;-2.01;96.05;100552.90;105609;1253;71697;-49
2024/01/07 00:08:38;;;;;;;24.30;12.20;;;;;;;-2.04;95.94;100555.41;105578;1255;69884;-55
2024/01/07 00:11:06;;;;;;;22.40;11.60;;;;;;;-2.06;95.77;100560.00;105549;1257;69198;-53
2024/01/07 00:13:35;;;;;;;22.00;12.40;;;;;;;-2.08;95.72;100563.75;105590;1253;73291;-52
2024/01/07 00:16:04;;;;;;;21.30;11.40;;;;;;;-2.10;95.68;100570.73;105629;1256;81524;-51
2024/01/07 00:18:32;;;;;;;19.60;11.70;;;;;;;-2.09;95.84;100574.16;105574;1255;71832;-51
2024/01/07 00:21:01;;;;;;;20.90;11.60;;;;;;;-2.08;95.98;100571.27;105579;1255;69833;-54
2024/01/07 00:23:29;;;;;;;22.00;11.80;;;;;;;-2.09;95.82;100572.98;105534;1256;69952;-52
2024/01/07 00:25:57;;;;;;;20.60;11.10;;;;;;;-2.10;95.62;100575.02;105577;1253;73339;-52
2024/01/07 00:28:25;;;;;;;22.50;11.70;;;;;;;-2.10;95.78;100568.86;105597;1256;81711;-50
2024/01/07 00:30:54;;;;;;;22.20;11.40;;;;;;;-2.10;95.73;100573.30;105606;1251;72802;-50
2024/01/07 00:33:22;;;;;;;20.30;10.90;;;;;;;-2.13;95.45;100576.15;105561;1254;69932;-53
2024/01/07 00:35:50;;;;;;;19.30;10.20;;;;;;;-2.16;95.30;100581.41;105505;1255;70006;-52
2024/01/07 00:38:18;;;;;;;20.60;11.20;;;;;;;-2.16;95.40;100579.17;105498;1253;72791;-51
2024/01/07 00:40:47;;;;;;;17.70;10.70;;;;;;;-2.17;95.43;100578.48;105470;1253;82064;-49
2024/01/07 00:43:15;;;;;;;17.90;10.30;;;;;;;-2.17;95.35;100578.30;105500;1254;72299;-52
2024/01/07 00:45:43;;;;;;;16.60;9.30;;;;;;;-2.15;95.46;100582.79;105463;1256;69932;-52
2024/01/07 00:48:12;;;;;;;17.00;9.40;;;;;;;-2.14;95.30;100585.03;105573;1256;70019;-51
2024/01/07 00:50:40;;;;;;;17.40;9.70;;;;;;;-2.14;95.20;100580.75;105592;1253;72927;-50
2024/01/07 00:53:08;;;;;;;18.50;9.90;;;;;;;-2.17;95.04;100582.08;105471;1253;80183;-50
2024/01/07 00:55:36;;;;;;;18.60;10.30;;;;;;;-2.19;94.88;100588.55;105464;1255;72370;-50
2024/01/07 00:58:04;;;;;;;14.20;8.50;;;;;;;-2.20;94.85;100587.84;105535;1253;69908;-50
2024/01/07 01:00:33;;;;;;;14.40;8.90;;;;;;;-2.22;94.60;100592.58;105574;1255;69926;-51
2024/01/07 01:03:02;;;;;;;14.60;8.00;;;;;;;-2.23;94.67;100595.31;105559;1253;73171;-51
2024/01/07 01:05:31;;;;;;;17.10;8.80;;;;;;;-2.23;94.52;100597.02;105425;1258;81832;-51
2024/01/07 01:07:59;;;;;;;18.30;9.30;;;;;;;-2.23;94.48;100599.09;105448;1253;70330;-50
2024/01/07 01:10:27;;;;;;;15.40;8.60;;;;;;;-2.23;94.55;100599.26;105405;1257;69929;-50
2024/01/07 01:12:56;;;;;;;14.30;8.20;;;;;;;-2.22;94.48;100599.42;105518;1256;69952;-49
2024/01/07 01:15:24;;;;;;;15.60;8.40;;;;;;;-2.24;94.36;100595.48;105492;1253;73113;-50
2024/01/07 01:17:53;;;;;;;16.30;7.80;;;;;;;-2.27;94.20;100599.70;105463;1256;81628;-49
2024/01/07 01:20:21;;;;;;;14.70;7.90;;;;;;;-2.29;94.07;100598.30;105493;1253;72262;-50
2024/01/07 01:22:49;;;;;;;13.00;8.10;;;;;;;-2.30;94.05;100597.42;105521;1254;69878;-49
2024/01/07 01:25:17;;;;;;;14.20;7.40;;;;;;;-2.31;93.89;100598.08;105527;1253;70316;-50
2024/01/07 01:27:46;;;;;;;15.60;8.40;;;;;;;-2.29;94.22;100595.91;105458;1253;73193;-50
2024/01/07 01:30:14;;;;;;;15.40;8.00;;;;;;;-2.26;94.09;100598.35;105501;1255;81788;-50
2024/01/07 01:32:42;;;;;;;12.50;7.50;;;;;;;-2.28;93.93;100599.70;105479;1256;71626;-51
2024/01/07 01:35:10;;;;;;;12.60;7.50;;;;;;;-2.28;93.84;100600.89;105502;1253;69922;-50
2024/01/07 01:37:39;;;;;;;14.70;7.80;;;;;;;-2.28;93.86;100603.96;105469;1256;70053;-50
2024/01/07 01:40:07;;;;;;;13.00;7.90;;;;;;;-2.26;93.95;100602.63;105487;1253;72688;-50
2024/01/07 01:42:36;;;;;;;14.30;7.30;;;;;;;-2.25;93.84;100607.60;105536;1253;81522;-51
2024/01/07 01:45:04;;;;;;;14.80;7.70;;;;;;;-2.27;93.63;100612.02;105510;1253;71727;-49
2024/01/07 01:47:33;;;;;;;12.60;7.50;;;;;;;-2.30;93.59;100614.38;105550;1253;69807;-51
2024/01/07 01:50:02;;;;;;;13.00;7.40;;;;;;;-2.30;93.62;100616.92;105505;1253;69926;-49
2024/01/07 01:52:31;;;;;;;16.20;7.60;;;;;;;-2.31;93.49;100616.23;105587;1256;72901;-50
2024/01/07 01:54:59;;;;;;;15.40;7.90;;;;;;;-2.29;93.60;100617.98;105443;1257;81744;-49
2024/01/07 01:57:36;;;;;;;13.30;7.20;;;;;;;-2.30;93.43;100619.16;105565;1255;73048;-50
2024/01/07 02:00:06;;;;;;;16.00;8.00;;;;;;;-2.29;93.54;100623.28;105500;1253;69929;-49
2024/01/07 02:02:34;;;;;;;14.90;8.10;;;;;;;-2.28;93.53;100619.88;105553;1253;69989;-50
2024/01/07 02:05:04;;;;;;;14.90;8.30;;;;;;;-2.27;93.40;100621.63;105528;1253;73819;-49
2024/01/07 02:07:32;;;;;;;14.60;7.70;;;;;;;-2.30;93.29;100624.13;105540;1253;81617;-49
2024/01/07 02:10:00;;;;;;;13.20;7.70;;;;;;;-2.33;93.17;100623.56;105444;1254;71613;-48
2024/01/07 02:12:29;;;;;;;14.00;7.60;;;;;;;-2.34;93.16;100626.95;105518;1255;69907;-48
2024/01/07 02:14:57;;;;;;;12.70;7.30;;;;;;;-2.38;93.12;100627.23;105570;1256;69985;-48
2024/01/07 02:17:26;;;;;;;10.00;6.40;;;;;;;-2.40;92.86;100626.65;105474;1254;74422;-48
2024/01/07 02:19:54;;;;;;;14.70;7.20;;;;;;;-2.43;92.83;100630.54;105610;1253;81830;-48
2024/01/07 02:22:22;;;;;;;12.70;7.20;;;;;;;-2.44;93.03;100628.45;105523;1253;72977;-47
2024/01/07 02:24:50;;;;;;;12.80;6.90;;;;;;;-2.45;92.93;100632.05;105539;1254;69911;-48
2024/01/07 02:27:19;;;;;;;12.60;7.00;;;;;;;-2.47;92.80;100636.46;105490;1255;69918;-48
2024/01/07 02:29:47;;;;;;;10.70;6.30;;;;;;;-2.49;92.81;100641.05;105534;1253;72860;-48
2024/01/07 02:32:15;;;;;;;12.80;7.30;;;;;;;-2.50;92.64;100643.57;105569;1256;82190;-48
2024/01/07 02:34:44;;;;;;;11.10;6.30;;;;;;;-2.51;92.59;100644.77;105490;1256;72641;-47
2024/01/07 02:37:12;;;;;;;10.20;6.70;;;;;;;-2.50;93.02;100645.30;105481;1256;69935;-48
2024/01/07 02:39:40;;;;;;;11.30;6.60;;;;;;;-2.47;92.91;100642.45;105543;1256;70691;-48
2024/01/07 02:42:10;;;;;;;12.30;6.50;;;;;;;-2.46;92.94;100643.34;105560;1253;72706;-49
2024/01/07 02:44:39;;;;;;;11.00;6.60;;;;;;;-2.45;92.75;100646.25;105475;1255;82171;-47
2024/01/07 02:47:07;;;;;;;9.80;6.30;;;;;;;-2.48;92.73;100646.88;105551;1253;70979;-48
2024/01/07 02:49:35;;;;;;;10.80;6.80;;;;;;;-2.49;92.74;100646.69;105486;1254;70006;-49
2024/01/07 02:52:04;;;;;;;12.70;7.40;;;;;;;-2.50;92.73;100649.40;105506;1255;70077;-48
2024/01/07 02:54:32;;;;;;;11.10;6.20;;;;;;;-2.52;92.77;100648.17;105540;1253;73053;-47
2024/01/07 02:57:01;;;;;;;10.10;6.20;;;;;;;-2.53;92.77;100648.83;105425;1257;81753;-47
2024/01/07 02:59:29;;;;;;;12.40;6.70;;;;;;;-2.55;92.79;100647.77;105594;1256;71545;-48
2024/01/07 03:01:57;;;;;;;11.10;7.10;;;;;;;-2.55;92.98;100646.21;105486;1252;69973;-48
2024/01/07 03:04:26;;;;;;;10.10;6.50;;;;;;;-2.57;92.86;100647.21;105550;1256;69861;-47
2024/01/07 03:06:54;;;;;;;11.10;6.70;;;;;;;-2.59;92.86;100654.52;105491;1255;73320;-49
2024/01/07 03:09:22;;;;;;;11.50;6.90;;;;;;;-2.59;92.78;100655.55;105511;1255;82111;-49
2024/01/07 03:11:50;;;;;;;12.00;6.60;;;;;;;-2.58;92.98;100655.73;105517;1264;71989;-47
2024/01/07 03:14:21;;;;;;;10.40;6.60;;;;;;;-2.59;92.77;100654.18;105551;1255;70006;-46
2024/01/07 03:16:49;;;;;;;10.80;6.60;;;;;;;-2.59;92.75;100656.06;105538;1253;69996;-48
2024/01/07 03:19:17;;;;;;;11.90;6.30;;;;;;;-2.59;92.58;100654.19;105583;1256;73066;-48
2024/01/07 03:21:47;;;;;;;10.60;6.60;;;;;;;-2.59;92.56;100655.04;105581;1255;82610;-48
2024/01/07 03:24:16;;;;;;;12.70;7.10;;;;;;;-2.59;92.61;100653.16;105508;1255;71475;-48
2024/01/07 03:26:44;;;;;;;11.20;6.80;;;;;;;-2.58;92.71;100652.33;105471;1256;69958;-48
2024/01/07 03:29:12;;;;;;;10.90;6.10;;;;;;;-2.58;92.47;100651.11;105458;1255;69989;-48
2024/01/07 03:31:40;;;;;;;9.30;6.30;;;;;;;-2.59;92.42;100653.51;105537;1254;73207;-49
2024/01/07 03:34:08;;;;;;;12.00;7.00;;;;;;;-2.59;92.27;100652.64;105515;1256;81347;-47
2024/01/07 03:36:37;;;;;;;12.00;7.00;;;;;;;-2.59;92.28;100644.60;105526;1254;71632;-47
2024/01/07 03:39:05;;;;;;;11.50;6.90;;;;;;;-2.59;92.22;100645.63;105482;1255;70275;-47
2024/01/07 03:41:33;;;;;;;11.40;6.70;;;;;;;-2.58;92.12;100649.73;105511;1255;70008;-48
2024/01/07 03:44:01;;;;;;;11.80;7.00;;;;;;;-2.59;92.18;100654.70;105613;1253;72791;-49
2024/01/07 03:46:30;;;;;;;9.80;6.50;;;;;;;-2.59;92.11;100658.80;105583;1253;83714;-47
2024/01/07 03:48:58;;;;;;;13.20;7.20;;;;;;;-2.57;92.16;100666.54;105571;1253;72594;-47
2024/01/07 03:51:27;;;;;;;12.80;7.10;;;;;;;-2.55;92.27;100665.38;105500;1254;69965;-48
2024/01/07 03:53:55;;;;;;;11.20;6.90;;;;;;;-2.54;92.04;100664.21;105570;1255;69920;-47
2024/01/07 03:56:24;;;;;;;11.50;6.80;;;;;;;-2.52;92.13;100669.38;105611;1256;74021;-47
2024/01/07 03:58:52;;;;;;;10.70;6.90;;;;;;;-2.51;92.27;100665.64;105493;1253;81446;-48
2024/01/07 04:01:20;;;;;;;10.00;6.60;;;;;;;-2.51;92.10;100667.86;105481;1254;71764;-48
2024/01/07 04:03:48;;;;;;;10.10;6.80;;;;;;;-2.54;91.87;100670.20;105493;1254;69920;-48
2024/01/07 04:06:17;;;;;;;10.20;6.70;;;;;;;-2.54;91.91;100673.80;105566;1255;69935;-47
2024/01/07 04:08:45;;;;;;;12.50;6.70;;;;;;;-2.55;91.91;100675.83;105455;1256;73365;-47
2024/01/07 04:11:14;;;;;;;10.40;6.60;;;;;;;-2.54;92.00;100678.23;105565;1255;81783;-47
2024/01/07 04:13:42;;;;;;;12.90;7.20;;;;;;;-2.54;91.87;100680.81;105516;1256;71954;-48
2024/01/07 04:16:19;;;;;;;9.20;6.30;;;;;;;-2.54;91.97;100680.11;105498;1254;70337;-48
2024/01/07 04:18:48;;;;;;;13.30;7.50;;;;;;;-2.53;91.93;100685.10;105560;1255;69983;-48
2024/01/07 04:21:21;;;;;;;10.70;6.70;;;;;;;-2.54;91.85;100687.14;105512;1254;72745;-47
2024/01/07 04:23:49;;;;;;;12.30;7.40;;;;;;;-2.55;91.57;100689.85;105567;1255;82066;-49
2024/01/07 04:26:18;;;;;;;12.70;6.60;;;;;;;-2.56;91.73;100689.83;105467;1253;72248;-48
2024/01/07 04:28:46;;;;;;;10.70;6.90;;;;;;;-2.55;92.07;100693.45;105557;1256;69992;-48
2024/01/07 04:31:14;;;;;;;10.90;7.30;;;;;;;-2.54;91.94;100693.98;105577;1256;69978;-48
2024/01/07 04:33:42;;;;;;;9.70;6.50;;;;;;;-2.54;91.75;100693.81;105541;1254;73907;-48
2024/01/07 04:36:11;;;;;;;12.10;6.70;;;;;;;-2.54;91.83;100694.84;105494;1256;81861;-48
2024/01/07 04:38:39;;;;;;;13.40;7.00;;;;;;;-2.54;91.88;100696.55;105514;1256;71887;-47
2024/01/07 04:41:07;;;;;;;11.00;6.60;;;;;;;-2.56;91.69;100706.09;105454;1254;69928;-48
2024/01/07 04:43:36;;;;;;;8.80;6.30;;;;;;;-2.56;91.69;100705.23;105534;1256;70015;-48
2024/01/07 04:46:05;;;;;;;10.80;7.10;;;;;;;-2.60;91.35;100703.77;105533;1255;71589;-48
2024/01/07 04:48:34;;;;;;;9.80;7.30;;;;;;;-2.64;91.30;100704.02;105551;1255;81878;-46
2024/01/07 04:51:02;;;;;;;12.60;6.80;;;;;;;-2.65;91.47;100708.45;105540;1254;72148;-47
2024/01/07 04:53:30;;;;;;;10.00;6.50;;;;;;;-2.66;91.46;100709.81;105484;1254;69886;-47
2024/01/07 04:55:59;;;;;;;10.60;6.70;;;;;;;-2.67;91.40;100709.77;105521;1255;69966;-47
2024/01/07 04:58:27;;;;;;;9.40;6.30;;;;;;;-2.69;91.41;100713.33;105507;1257;73234;-47
2024/01/07 05:00:55;;;;;;;9.00;5.90;;;;;;;-2.69;91.43;100717.94;105524;1256;81506;-48
2024/01/07 05:03:23;;;;;;;9.50;6.00;;;;;;;-2.71;91.50;100717.92;105509;1257;71708;-48
2024/01/07 05:05:52;;;;;;;11.00;6.10;;;;;;;-2.70;91.47;100720.33;105493;1258;69927;-49
2024/01/07 05:08:20;;;;;;;8.80;6.30;;;;;;;-2.69;91.66;100722.22;105543;1254;70314;-47
2024/01/07 05:10:53;;;;;;;9.00;5.80;;;;;;;-2.68;91.88;100724.64;105488;1256;74276;-47
2024/01/07 05:13:22;;;;;;;9.10;5.70;;;;;;;-2.65;91.75;100723.52;105511;1256;82746;-48
2024/01/07 05:15:53;;;;;;;9.40;6.30;;;;;;;-2.64;91.63;100726.09;105537;1255;70778;-48
2024/01/07 05:18:23;;;;;;;8.80;5.70;;;;;;;-2.65;91.63;100725.57;105567;1254;69916;-47
2024/01/07 05:20:52;;;;;;;9.20;5.90;;;;;;;-2.64;91.59;100733.11;105531;1255;69970;-49
2024/01/07 05:23:20;;;;;;;8.10;5.70;;;;;;;-2.65;91.66;100733.09;105620;1257;73053;-49
2024/01/07 05:25:48;;;;;;;10.60;6.60;;;;;;;-2.65;91.56;100738.56;105602;1256;81402;-47
2024/01/07 05:28:19;;;;;;;10.50;6.70;;;;;;;-2.67;91.53;100740.56;105492;1257;71901;-47
2024/01/07 05:30:48;;;;;;;12.70;6.60;;;;;;;-2.66;91.75;100744.01;105505;1253;69892;-48
2024/01/07 05:33:17;;;;;;;9.80;6.10;;;;;;;-2.68;91.44;100746.89;105516;1254;69886;-47
2024/01/07 05:35:45;;;;;;;9.90;5.60;;;;;;;-2.69;91.37;100750.62;105515;1255;73355;-48
2024/01/07 05:38:14;;;;;;;11.30;5.80;;;;;;;-2.70;91.37;100752.83;105510;1255;81854;-48
2024/01/07 05:40:42;;;;;;;9.10;5.70;;;;;;;-2.72;91.25;100753.13;105486;1256;71844;-47
2024/01/07 05:43:10;;;;;;;8.20;5.80;;;;;;;-2.76;91.05;100756.81;105549;1257;69934;-47
2024/01/07 05:45:38;;;;;;;6.60;4.90;;;;;;;-2.79;91.00;100756.91;105515;1256;70061;-48
2024/01/07 05:48:07;;;;;;;7.00;4.80;;;;;;;-2.80;91.16;100757.05;105587;1253;72606;-48
2024/01/07 05:50:35;;;;;;;10.70;5.20;;;;;;;-2.81;91.11;100757.02;105499;1265;81410;-47
2024/01/07 05:53:04;;;;;;;7.00;5.10;;;;;;;-2.84;91.07;100761.23;105513;1263;71645;-47
2024/01/07 05:55:32;;;;;;;7.30;5.10;;;;;;;-2.88;90.75;100759.94;105567;1256;69922;-48
2024/01/07 05:58:00;;;;;;;6.90;5.10;;;;;;;-2.91;90.95;100762.27;105567;1257;70009;-47
2024/01/07 06:00:28;;;;;;;7.30;5.10;;;;;;;-2.93;90.93;100766.52;105483;1255;74521;-48
2024/01/07 06:02:57;;;;;;;9.70;5.60;;;;;;;-2.94;90.80;100768.52;105480;1254;81823;-48
2024/01/07 06:05:26;;;;;;;7.60;5.00;;;;;;;-2.95;90.85;100772.26;105558;1257;71689;-50
2024/01/07 06:07:55;;;;;;;9.80;5.20;;;;;;;-2.97;90.81;100775.64;105601;1255;69916;-50
2024/01/07 06:10:23;;;;;;;7.30;4.90;;;;;;;-2.99;90.77;100782.27;105465;1257;69917;-49
2024/01/07 06:12:51;;;;;;;9.90;5.10;;;;;;;-2.98;90.95;100783.46;105495;1256;72830;-49
2024/01/07 06:15:19;;;;;;;7.30;5.30;;;;;;;-2.99;90.84;100787.91;105511;1258;81736;-50
2024/01/07 06:17:48;;;;;;;10.00;5.40;;;;;;;-3.00;90.81;100790.77;105525;1257;71677;-49
2024/01/07 06:20:17;;;;;;;6.90;5.60;;;;;;;-3.02;90.81;100796.54;105539;1264;69902;-50
2024/01/07 06:22:46;;;;;;;8.40;5.30;;;;;;;-3.05;90.71;100800.23;105507;1257;69977;-49
2024/01/07 06:25:14;;;;;;;8.50;5.20;;;;;;;-3.06;90.66;100806.19;105472;1255;73463;-49
2024/01/07 06:27:43;;;;;;;6.60;4.90;;;;;;;-3.06;90.82;100804.98;105514;1265;82030;-50
2024/01/07 06:30:12;;;;;;;8.70;5.30;;;;;;;-3.06;90.79;100807.89;105585;1256;71851;-49
2024/01/07 06:32:39;;;;;;;9.90;5.40;;;;;;;-3.06;91.00;100812.17;105516;1255;69948;-49
2024/01/07 06:35:08;;;;;;;7.40;4.90;;;;;;;-3.04;91.14;100811.89;105522;1257;69969;-51
2024/01/07 06:37:36;;;;;;;9.90;5.60;;;;;;;-3.04;90.86;100815.45;105525;1253;73231;-49
2024/01/07 06:40:05;;;;;;;6.40;4.70;;;;;;;-3.06;90.77;100821.23;105507;1257;81748;-50
2024/01/07 06:42:33;;;;;;;6.90;5.10;;;;;;;-3.07;90.67;100821.55;105582;1256;73041;-48
2024/01/07 06:45:03;;;;;;;7.20;5.20;;;;;;;-3.08;90.59;100827.33;105567;1257;69980;-50
2024/01/07 06:47:31;;;;;;;9.80;5.30;;;;;;;-3.10;90.66;100829.19;105547;1256;69898;-49
2024/01/07 06:49:59;;;;;;;8.60;5.50;;;;;;;-3.10;90.63;100834.10;105578;1257;73104;-50
2024/01/07 06:52:28;;;;;;;6.80;4.80;;;;;;;-3.09;90.60;100833.96;105547;1257;81808;-48
2024/01/07 06:54:56;;;;;;;9.10;5.50;;;;;;;-3.13;90.41;100841.06;105453;1259;70352;-49
2024/01/07 06:57:24;;;;;;;6.20;4.60;;;;;;;-3.15;90.48;100846.49;105435;1256;70008;-49
2024/01/07 06:59:53;;;;;;;9.90;4.90;;;;;;;-3.14;90.53;100846.49;105465;1257;69999;-50
2024/01/07 07:02:21;;;;;;;10.00;5.30;;;;;;;-3.16;90.44;100854.81;105412;1254;74534;-48
2024/01/07 07:04:51;;;;;;;9.60;5.10;;;;;;;-3.15;90.59;100856.91;105548;1254;82066;-49
2024/01/07 07:07:19;;;;;;;7.60;5.00;;;;;;;-3.15;90.47;100852.63;105530;1257;71907;-48
2024/01/07 07:09:47;;;;;;;9.80;5.30;;;;;;;-3.18;90.13;100853.25;105676;1260;69884;-49
2024/01/07 07:12:16;;;;;;;7.30;4.60;;;;;;;-3.18;90.27;100854.10;105538;1254;71342;-47
2024/01/07 07:14:44;;;;;;;8.60;4.50;;;;;;;-3.19;90.20;100859.05;105583;1254;71690;-49
2024/01/07 07:17:13;;;;;;;7.40;4.50;;;;;;;-3.20;90.17;100858.31;105546;1257;81418;-49
2024/01/07 07:19:42;;;;;;;7.50;4.50;;;;;;;-3.20;90.15;100866.69;105603;1257;71677;-51
2024/01/07 07:22:13;;;;;;;5.90;3.80;;;;;;;-3.20;89.99;100867.71;105630;1257;69983;-49
2024/01/07 07:24:41;;;;;;;7.30;4.10;;;;;;;-3.20;90.08;100871.64;105822;1257;69974;-52
2024/01/07 07:27:10;;;;;;;5.40;3.50;;;;;;;-3.20;89.70;100869.41;105647;1257;74237;-51
2024/01/07 07:29:38;;;;;;;4.90;3.40;;;;;;;-3.24;89.53;100870.35;105540;1255;82292;-48
2024/01/07 07:32:07;;;;;;;5.70;3.00;;;;;;;-3.26;89.49;100868.08;105577;1257;72109;-47
2024/01/07 07:34:35;;;;;;;4.60;2.90;;;;;;;-3.24;89.48;100871.87;105695;1254;69994;-51
2024/01/07 07:37:03;;;;;;;5.60;3.00;;;;;;;-3.23;89.34;100872.25;105702;1257;70009;-48
2024/01/07 07:39:32;;;;;;;3.90;2.30;;;;;;;-3.24;88.97;100873.42;105615;1255;74300;-46
2024/01/07 07:42:00;;;;;;;4.20;2.40;;;;;;;-3.27;88.49;100873.52;105585;1256;81378;-50
2024/01/07 07:44:28;;;;;;;4.90;2.30;;;;;;;-3.29;88.24;100871.23;105540;1256;73179;-48
2024/01/07 07:46:56;;;;;;;3.50;1.90;;;;;;;-3.30;88.25;100871.19;105588;1254;69979;-48
2024/01/07 07:49:24;;;;;;;3.20;1.80;;;;;;;-3.33;87.91;100877.60;105566;1255;69916;-48
2024/01/07 07:51:56;;;;;;;3.40;1.90;;;;;;;-3.34;87.83;100888.35;105596;1257;72734;-48
2024/01/07 07:54:25;;;;;;;5.10;2.00;;;;;;;-3.35;87.63;100892.11;105668;1255;81677;-47
2024/01/07 07:56:53;;;;;;;3.90;1.90;;;;;;;-3.34;87.48;100898.61;105577;1256;72047;-50
2024/01/07 07:59:21;;;;;;;3.90;1.90;;;;;;;-3.33;87.29;100902.23;105612;1265;69986;-47
2024/01/07 08:01:50;;;;;;;6.50;2.50;;;;;;;-3.32;87.27;100904.13;105540;1254;70088;-47
2024/01/07 08:04:18;;;;;;;5.50;2.20;;;;;;;-3.29;87.30;100906.60;105635;1254;72991;-50
2024/01/07 08:06:47;;;;;;;5.50;1.90;;;;;;;-3.31;87.01;100908.27;105669;1253;81854;-46
2024/01/07 08:09:15;;;;;;;3.10;2.20;;;;;;;-3.34;86.56;100912.13;105676;1254;72556;-46
2024/01/07 08:11:43;;;;;;;3.80;2.00;;;;;;;-3.38;86.31;100914.55;105548;1257;69936;-47
2024/01/07 08:14:12;;;;;;;4.30;2.20;;;;;;;-3.43;85.75;100908.12;105602;1254;69993;-46
2024/01/07 08:16:39;;;;;;;4.20;2.30;;;;;;;-3.46;85.62;100915.21;105533;1256;74121;-47
2024/01/07 08:19:08;;;;;;;4.10;2.30;;;;;;;-3.46;85.72;100912.30;105575;1254;80593;-48
2024/01/07 08:21:36;;;;;;;4.40;2.30;;;;;;;-3.45;85.63;100917.95;105698;1254;72415;-48
2024/01/07 08:24:05;;;;;;;4.60;2.30;;;;;;;-3.44;85.33;100923.09;105906;1264;69925;-47
2024/01/07 08:26:33;;;;;;;3.40;2.20;;;;;;;-3.46;85.34;100924.27;105605;1264;70435;-46
2024/01/07 08:29:01;;;;;;;5.70;3.00;;;;;;;-3.46;85.28;100925.79;105724;1254;72750;-49
2024/01/07 08:31:30;;;;;;;4.60;2.50;;;;;;;-3.45;85.27;100931.45;105754;1256;81357;-47
2024/01/07 08:33:59;;;;;;;4.50;2.60;;;;;;;-3.47;85.34;100930.90;105719;1257;71657;-49
2024/01/07 08:36:29;;;;;;;5.90;3.10;;;;;;;-3.47;85.17;100934.31;105723;1256;69935;-47
2024/01/07 08:38:57;;;;;;;4.30;2.80;;;;;;;-3.44;85.21;100936.95;105611;1257;70003;-49
2024/01/07 08:41:26;;;;;;;5.40;2.80;;;;;;;-3.46;85.07;100939.98;105758;1254;75070;-47
2024/01/07 08:43:54;;;;;;;6.20;3.30;;;;;;;-3.48;85.00;100938.55;105727;1255;81392;-49
2024/01/07 08:46:22;;;;;;;6.90;3.50;;;;;;;-3.48;85.06;100945.89;105560;1255;72256;-47
2024/01/07 08:48:51;;;;;;;7.30;3.30;;;;;;;-3.50;84.99;100945.82;105522;1257;69996;-47
2024/01/07 08:51:19;;;;;;;8.00;3.20;;;;;;;-3.53;85.00;100953.41;105561;1254;69829;-47
2024/01/07 08:53:48;;;;;;;6.40;3.60;;;;;;;-3.59;84.75;100952.59;105611;1252;73144;-46
2024/01/07 08:56:16;;;;;;;5.40;3.00;;;;;;;-3.66;84.46;100959.05;105536;1257;83349;-47
2024/01/07 08:58:44;;;;;;;5.10;3.00;;;;;;;-3.69;84.52;100955.52;105581;1254;72360;-47
2024/01/07 09:01:14;;;;;;;6.60;3.60;;;;;;;-3.71;84.54;100960.77;105566;1257;69897;-48
2024/01/07 09:03:42;;;;;;;5.80;3.20;;;;;;;-3.73;84.50;100966.17;105848;1256;70606;-46
2024/01/07 09:06:10;;;;;;;6.60;3.80;;;;;;;-3.76;84.62;100966.59;105578;1256;73185;-47
2024/01/07 09:08:39;;;;;;;5.80;3.50;;;;;;;-3.80;84.43;100969.20;105604;1257;81483;-46
2024/01/07 09:11:10;;;;;;;5.90;3.60;;;;;;;-3.83;84.53;100968.59;105557;1252;71542;-47
2024/01/07 09:13:39;;;;;;;8.50;3.70;;;;;;;-3.84;84.50;100968.08;105696;1257;69997;-46
2024/01/07 09:16:11;;;;;;;7.00;4.00;;;;;;;-3.85;84.44;100972.80;105639;1257;69973;-47
2024/01/07 09:18:40;;;;;;;6.50;3.70;;;;;;;-3.88;84.57;100973.95;105715;1256;71282;-47
2024/01/07 09:21:08;;;;;;;4.70;3.60;;;;;;;-3.85;84.57;100980.67;105741;1257;81713;-47
2024/01/07 09:23:37;;;;;;;7.30;3.80;;;;;;;-3.82;84.47;100982.98;105588;1253;70854;-47
2024/01/07 09:26:05;;;;;;;10.10;3.90;;;;;;;-3.79;84.27;100979.83;105517;1257;69926;-47
2024/01/07 09:28:33;;;;;;;5.90;3.80;;;;;;;-3.78;84.15;100982.75;105656;1257;70021;-49
2024/01/07 09:31:01;;;;;;;5.90;3.90;;;;;;;-3.75;84.03;100985.76;105541;1254;72130;-46
2024/01/07 09:33:30;;;;;;;10.60;5.20;;;;;;;-3.68;84.01;100981.19;105783;1257;81468;-48
2024/01/07 09:35:58;;;;;;;6.80;4.20;;;;;;;-3.58;84.09;100984.39;105659;1257;72893;-47
2024/01/07 09:38:41;;;;;;;8.00;4.70;;;;;;;-3.44;84.31;100985.30;105546;1256;70008;-49
2024/01/07 09:41:10;;;;;;;9.00;5.10;;;;;;;-3.31;84.29;100983.80;105566;1259;69919;-49
2024/01/07 09:43:38;;;;;;;8.90;3.90;;;;;;;-3.20;84.16;100983.42;105554;1255;71814;-47
2024/01/07 09:46:06;;;;;;;8.10;5.10;;;;;;;-3.11;83.97;100985.05;105750;1257;81987;-47
2024/01/07 09:48:34;;;;;;;7.60;4.80;;;;;;;-3.05;83.94;100980.93;105598;1254;72351;-48
2024/01/07 09:51:04;;;;;;;9.70;5.10;;;;;;;-3.05;83.73;100981.79;105529;1258;69917;-48
2024/01/07 09:53:34;;;;;;;10.40;4.50;;;;;;;-3.06;83.46;100984.84;105563;1257;69995;-48
2024/01/07 09:56:20;;;;;;;9.10;5.30;;;;;;;-3.06;83.09;100986.38;105961;1254;71777;-48
2024/01/07 09:58:49;;;;;;;9.00;4.40;;;;;;;-3.07;83.33;100989.95;105646;1254;81639;-48
2024/01/07 10:01:18;;;;;;;9.90;5.20;;;;;;;-3.09;82.99;100989.54;105700;1254;72627;-50
2024/01/07 10:03:47;;;;;;;7.60;5.00;;;;;;;-3.09;82.80;100990.73;105742;1254;69866;-49
2024/01/07 10:06:18;;;;;;;9.50;5.50;;;;;;;-3.16;82.45;100989.35;105707;1257;69916;-48
2024/01/07 10:08:46;;;;;;;8.20;4.90;;;;;;;-3.25;82.31;100991.84;105655;1254;72861;-47
2024/01/07 10:11:15;;;;;;;9.30;5.60;;;;;;;-3.28;82.32;100991.23;105568;1256;83602;-48
2024/01/07 10:13:47;;;;;;;8.80;5.40;;;;;;;-3.27;82.35;100989.39;105870;1258;72571;-48
2024/01/07 10:16:15;;;;;;;11.70;5.60;;;;;;;-3.24;82.41;100990.84;105589;1254;70003;-48
2024/01/07 10:18:44;;;;;;;8.60;5.30;;;;;;;-3.26;82.12;100990.95;105730;1252;69952;-48
2024/01/07 10:21:12;;;;;;;10.70;6.00;;;;;;;-3.25;82.14;100990.31;105529;1253;73980;-47
2024/01/07 10:23:41;;;;;;;11.40;6.40;;;;;;;-3.29;81.66;100991.03;105713;1256;81477;-51
2024/01/07 10:26:09;;;;;;;8.20;5.50;;;;;;;-3.33;81.85;100994.51;105579;1257;70864;-47
2024/01/07 10:28:50;;;;;;;9.90;5.10;;;;;;;-3.35;81.54;100994.61;105558;1252;69883;-47
2024/01/07 10:31:18;;;;;;;11.10;6.80;;;;;;;-3.39;81.46;100996.55;105385;1257;70009;-47
2024/01/07 10:33:47;;;;;;;10.70;6.50;;;;;;;-3.45;81.39;101003.05;105657;1254;72807;-48
2024/01/07 10:36:16;;;;;;;10.80;6.20;;;;;;;-3.46;81.52;101002.16;105458;1257;82482;-47
2024/01/07 10:38:45;;;;;;;12.60;7.00;;;;;;;-3.47;81.36;101000.23;105692;1257;71957;-49
2024/01/07 10:41:15;;;;;;;11.50;5.80;;;;;;;-3.51;81.21;101003.72;105510;1254;183498;-48
2024/01/07 10:43:47;;;;;;;11.30;6.80;;;;;;;-3.48;81.55;101005.15;105723;1255;70641;-48
2024/01/07 10:46:16;;;;;;;11.80;6.60;;;;;;;-3.49;81.06;101011.30;105723;1254;73136;-49
2024/01/07 10:48:54;;;;;;;10.90;6.10;;;;;;;-3.49;81.14;101009.09;105700;1255;81736;-48
2024/01/07 10:51:24;;;;;;;11.80;6.30;;;;;;;-3.51;80.99;101008.35;105674;1253;71708;-48
2024/01/07 10:53:55;;;;;;;9.80;6.70;;;;;;;-3.51;81.07;101006.80;105536;1257;70022;-47
2024/01/07 10:56:25;;;;;;;13.80;6.40;;;;;;;-3.55;80.95;101000.35;105606;1257;70112;-48
2024/01/07 10:58:54;;;;;;;10.40;6.30;;;;;;;-3.60;80.82;101004.13;105684;1253;73247;-47
2024/01/07 11:01:23;;;;;;;11.70;6.90;;;;;;;-3.58;81.25;101002.66;105696;1256;82025;-50
2024/01/07 11:04:06;;;;;;;11.20;6.80;;;;;;;-3.54;81.43;101005.50;105634;1256;71128;-47
2024/01/07 11:06:42;;;;;;;16.80;8.10;;;;;;;-3.50;81.49;101002.91;105654;1256;69983;-49
2024/01/07 11:09:19;;;;;;;13.00;7.10;;;;;;;-3.49;80.95;101002.75;105561;1254;70005;-48
2024/01/07 11:11:47;;;;;;;12.60;6.40;;;;;;;-3.53;80.73;101002.12;105663;1255;71814;-54
2024/01/07 11:14:39;;;;;;;12.10;6.50;;;;;;;-3.55;80.73;101000.02;105619;1256;81791;-48
2024/01/07 11:17:08;;;;;;;14.80;7.60;;;;;;;-3.55;80.84;101000.67;105821;1253;71260;-50
2024/01/07 11:19:37;;;;;;;14.10;7.80;;;;;;;-3.56;80.69;100999.30;105744;1254;69915;-48